Time;durP1;ratioP1;P1;durP2;ratioP2;P2;SDS_P1;SDS_P2;PMS_P1;PMS_P2;Temp;Humidity;BMP_temperature;BMP_pressure;BME280_temperature;BME280_humidity;BME280_pressure;Samples;Min_cycle;Max_cycle;Signal;HPM_P1;HPM_P2
2021/04/19 00:02:08;;;;;;;44.30;21.00;;;7.50;97.30;;;;;;4865729;29;20528;-88
2021/04/19 00:07:38;;;;;;;48.83;20.70;;;7.50;97.30;;;;;;4899022;29;20515;-88
2021/04/19 00:10:08;;;;;;;41.27;20.40;;;7.50;97.30;;;;;;4883188;29;20461;-88
2021/04/19 00:12:36;;;;;;;41.60;20.43;;;7.50;97.30;;;;;;4883748;29;20421;-88
2021/04/19 00:15:07;;;;;;;54.17;23.77;;;7.50;97.30;;;;;;4884357;29;20799;-88
2021/04/19 00:17:36;;;;;;;51.70;23.07;;;7.50;97.30;;;;;;4978822;28;20441;-88
2021/04/19 00:20:05;;;;;;;58.67;24.73;;;7.40;97.30;;;;;;4961823;28;20592;-88
2021/04/19 00:22:36;;;;;;;70.37;24.23;;;7.40;97.30;;;;;;4961232;28;20425;-88
2021/04/19 00:25:07;;;;;;;87.33;24.47;;;7.40;97.30;;;;;;4961104;28;20452;-88
2021/04/19 00:27:35;;;;;;;89.47;24.33;;;7.50;97.30;;;;;;4961351;28;20422;-87
2021/04/19 00:30:24;;;;;;;167.47;28.77;;;7.50;97.30;;;;;;4961601;28;20472;-88
2021/04/19 00:32:57;;;;;;;198.43;29.60;;;7.50;97.30;;;;;;4946965;28;20457;-88
2021/04/19 00:35:26;;;;;;;93.30;25.27;;;7.50;97.30;;;;;;4978511;28;20438;-89
2021/04/19 00:38:01;;;;;;;133.33;26.97;;;7.50;97.30;;;;;;4977675;28;20418;-87
2021/04/19 00:40:27;;;;;;;217.80;30.53;;;7.50;97.30;;;;;;4959631;28;20422;-88
2021/04/19 00:42:55;;;;;;;168.07;28.00;;;7.50;97.30;;;;;;4959126;28;20945;-87
2021/04/19 00:45:21;;;;;;;228.93;30.83;;;7.50;97.30;;;;;;4958666;28;20293;-87
2021/04/19 00:47:47;;;;;;;104.73;25.03;;;7.50;97.30;;;;;;4962531;28;20868;-87
2021/04/19 00:50:28;;;;;;;146.70;29.00;;;7.50;97.30;;;;;;4939463;29;20207;-87
2021/04/19 00:52:54;;;;;;;209.60;28.90;;;7.50;97.30;;;;;;4954578;29;20922;-87
2021/04/19 00:55:22;;;;;;;239.27;30.10;;;7.50;97.30;;;;;;4939580;29;20537;-87
2021/04/19 00:57:48;;;;;;;206.60;30.60;;;7.50;97.30;;;;;;4939703;29;20422;-87
2021/04/19 01:00:27;;;;;;;252.70;30.80;;;7.50;97.30;;;;;;4939457;29;20478;-87
2021/04/19 01:02:53;;;;;;;251.17;31.60;;;7.50;97.30;;;;;;4939097;29;20211;-88
2021/04/19 01:05:27;;;;;;;362.00;37.47;;;7.50;97.30;;;;;;4939295;29;20443;-87
2021/04/19 01:07:53;;;;;;;289.00;32.07;;;7.50;97.30;;;;;;4939546;29;20426;-87
2021/04/19 01:10:19;;;;;;;544.87;43.07;;;7.40;97.30;;;;;;4940071;29;20451;-87
2021/04/19 01:12:44;;;;;;;481.63;38.87;;;7.40;97.30;;;;;;4940269;29;20171;-87
2021/04/19 01:15:14;;;;;;;394.53;34.43;;;7.40;97.30;;;;;;4956146;29;20195;-87
2021/04/19 01:17:40;;;;;;;307.97;31.20;;;7.40;97.30;;;;;;4940403;29;20709;-87
2021/04/19 01:20:08;;;;;;;319.70;33.43;;;7.40;97.30;;;;;;4952600;29;20426;-87
2021/04/19 01:22:36;;;;;;;480.20;38.80;;;7.30;97.30;;;;;;4940380;29;20589;-87
2021/04/19 01:25:08;;;;;;;425.20;36.20;;;7.30;97.30;;;;;;4939853;29;20442;-87
2021/04/19 01:27:34;;;;;;;382.43;33.30;;;7.30;97.30;;;;;;4939350;29;20835;-87
2021/04/19 01:30:00;;;;;;;365.73;34.10;;;7.20;97.30;;;;;;4940272;29;20843;-87
2021/04/19 01:32:28;;;;;;;399.50;34.23;;;7.10;97.30;;;;;;4940584;29;20415;-87
2021/04/19 01:34:53;;;;;;;308.20;30.57;;;7.10;97.30;;;;;;4958043;29;20450;-87
2021/04/19 01:37:19;;;;;;;418.80;35.13;;;7.10;97.30;;;;;;4941584;29;20913;-87
2021/04/19 01:39:45;;;;;;;436.17;34.87;;;7.00;97.30;;;;;;4941308;29;20210;-87
2021/04/19 01:42:11;;;;;;;380.90;32.30;;;7.00;97.30;;;;;;4941288;29;20186;-86
2021/04/19 01:44:37;;;;;;;222.03;25.40;;;7.00;97.30;;;;;;4942387;29;20475;-88
2021/04/19 01:47:04;;;;;;;245.47;27.70;;;6.90;97.30;;;;;;4940873;29;20510;-85
2021/04/19 01:49:31;;;;;;;217.30;25.03;;;6.90;97.30;;;;;;4941232;29;20207;-87
2021/04/19 01:51:56;;;;;;;289.60;27.80;;;6.80;97.30;;;;;;4941203;29;20415;-88
2021/04/19 01:54:22;;;;;;;318.23;28.33;;;6.70;97.30;;;;;;4940106;29;20466;-87
2021/04/19 01:56:48;;;;;;;251.00;28.00;;;6.70;97.30;;;;;;4939453;29;20742;-87
2021/04/19 01:59:14;;;;;;;311.33;27.90;;;6.60;97.30;;;;;;4939783;29;20450;-87
2021/04/19 02:01:50;;;;;;;318.57;29.10;;;6.50;97.30;;;;;;4938674;29;20179;-88
2021/04/19 02:04:34;;;;;;;170.43;24.20;;;6.50;97.30;;;;;;4938983;29;20423;-87
2021/04/19 02:07:23;;;;;;;356.23;30.47;;;6.50;97.30;;;;;;4938583;29;20465;-88
2021/04/19 02:10:22;;;;;;;275.73;28.50;;;6.40;97.30;;;;;;4938329;29;20517;-87
2021/04/19 02:12:59;;;;;;;359.60;28.17;;;6.40;97.30;;;;;;4938412;29;20441;-87
2021/04/19 02:15:32;;;;;;;403.93;32.37;;;6.40;97.30;;;;;;4938541;29;20430;-88
2021/04/19 02:17:57;;;;;;;327.37;28.13;;;6.40;97.30;;;;;;4939804;29;20486;-88
2021/04/19 02:20:32;;;;;;;292.07;28.13;;;6.30;97.30;;;;;;4938794;29;20426;-87
2021/04/19 02:23:04;;;;;;;299.27;29.20;;;6.30;97.30;;;;;;4938315;29;20264;-88
2021/04/19 02:25:34;;;;;;;294.03;28.50;;;6.30;97.30;;;;;;4937808;29;20462;-87
2021/04/19 02:28:07;;;;;;;284.63;27.80;;;6.20;97.30;;;;;;4938400;29;20938;-87
2021/04/19 02:30:37;;;;;;;250.57;28.67;;;6.30;97.30;;;;;;4938518;29;20462;-86
2021/04/19 02:33:07;;;;;;;198.63;25.10;;;6.30;97.30;;;;;;4939351;29;20426;-88
2021/04/19 02:35:34;;;;;;;232.70;27.70;;;6.30;97.30;;;;;;4938938;29;20439;-88
2021/04/19 02:38:04;;;;;;;212.50;26.10;;;6.30;97.30;;;;;;4938641;29;20914;-88
2021/04/19 02:40:34;;;;;;;130.03;22.57;;;6.30;97.30;;;;;;4938874;29;20855;-87
2021/04/19 02:43:01;;;;;;;217.33;24.43;;;6.20;97.30;;;;;;4941556;29;20524;-88
2021/04/19 02:45:27;;;;;;;164.10;21.27;;;6.20;97.30;;;;;;4955813;29;20463;-87
2021/04/19 02:47:54;;;;;;;172.23;22.37;;;6.20;97.30;;;;;;4939282;29;20435;-87
2021/04/19 02:50:22;;;;;;;158.57;21.30;;;6.10;97.30;;;;;;4921385;29;20538;-88
2021/04/19 02:52:49;;;;;;;193.13;23.00;;;6.10;97.30;;;;;;4920693;29;20423;-88
2021/04/19 02:55:18;;;;;;;173.00;20.83;;;6.00;97.30;;;;;;4936665;29;20518;-88
2021/04/19 02:57:50;;;;;;;217.27;23.97;;;5.90;97.30;;;;;;4940405;29;20497;-88
2021/04/19 03:00:20;;;;;;;117.97;19.07;;;5.80;97.30;;;;;;4924945;29;20463;-87
2021/04/19 03:02:46;;;;;;;220.03;25.10;;;5.70;97.30;;;;;;4941057;29;20422;-88
2021/04/19 03:05:14;;;;;;;152.93;21.60;;;5.60;97.30;;;;;;4940591;29;20541;-88
2021/04/19 03:07:46;;;;;;;160.43;21.70;;;5.60;97.30;;;;;;4939836;29;20517;-87
2021/04/19 03:10:18;;;;;;;192.93;24.50;;;5.60;97.30;;;;;;4940400;29;20978;-88
2021/04/19 03:12:49;;;;;;;251.80;24.43;;;5.50;97.30;;;;;;4939566;29;20926;-89
2021/04/19 03:15:19;;;;;;;318.30;28.13;;;5.50;97.30;;;;;;4938730;29;20474;-88
2021/04/19 03:17:46;;;;;;;308.57;27.90;;;5.50;97.30;;;;;;4937860;29;20490;-88
2021/04/19 03:20:20;;;;;;;312.77;27.73;;;5.50;97.30;;;;;;4937899;29;20929;-87
2021/04/19 03:22:47;;;;;;;296.97;28.47;;;5.60;97.30;;;;;;4938445;29;20865;-88
2021/04/19 03:25:14;;;;;;;451.13;32.27;;;5.60;97.30;;;;;;4938393;29;20442;-87
2021/04/19 03:27:42;;;;;;;405.90;32.40;;;5.60;97.30;;;;;;4924992;29;20435;-88
2021/04/19 03:30:09;;;;;;;336.03;29.20;;;5.60;97.30;;;;;;4942222;29;20473;-88
2021/04/19 03:32:39;;;;;;;467.27;36.80;;;5.70;97.30;;;;;;4941787;29;20446;-87
2021/04/19 03:35:11;;;;;;;405.80;33.70;;;5.70;97.30;;;;;;4941422;29;20529;-88
2021/04/19 03:37:39;;;;;;;486.43;36.43;;;5.80;97.30;;;;;;4941702;29;20823;-87
2021/04/19 03:40:28;;;;;;;522.43;37.47;;;5.80;97.30;;;;;;4958642;28;20425;-87
2021/04/19 03:42:59;;;;;;;376.50;31.70;;;5.90;97.30;;;;;;4941358;29;20505;-88
2021/04/19 03:45:26;;;;;;;453.20;33.20;;;5.90;97.30;;;;;;4941587;29;20957;-87
2021/04/19 03:47:55;;;;;;;352.30;30.10;;;6.00;97.30;;;;;;4942020;29;20427;-87
2021/04/19 03:50:23;;;;;;;285.00;29.97;;;6.00;97.30;;;;;;4959225;28;20674;-87
2021/04/19 03:52:50;;;;;;;215.23;26.10;;;6.00;97.30;;;;;;4941788;29;20800;-87
2021/04/19 03:55:17;;;;;;;325.17;29.30;;;6.10;97.30;;;;;;4941357;29;21016;-87
2021/04/19 03:57:46;;;;;;;194.40;25.00;;;6.10;97.30;;;;;;4942036;29;20430;-88
2021/04/19 04:00:16;;;;;;;325.77;29.20;;;6.10;97.30;;;;;;4942193;29;20439;-87
2021/04/19 04:02:46;;;;;;;227.47;26.40;;;6.10;97.30;;;;;;4941255;29;20418;-88
2021/04/19 04:05:13;;;;;;;349.60;29.83;;;6.10;97.30;;;;;;4941537;29;20537;-88
2021/04/19 04:07:39;;;;;;;208.83;26.03;;;6.10;97.30;;;;;;4942792;29;20422;-88
2021/04/19 04:10:07;;;;;;;161.37;23.43;;;6.10;97.30;;;;;;4942491;29;20981;-88
2021/04/19 04:12:35;;;;;;;198.77;22.93;;;6.10;97.30;;;;;;4943216;29;20418;-87
2021/04/19 04:15:00;;;;;;;177.10;24.20;;;6.10;97.30;;;;;;4943211;29;21013;-88
2021/04/19 04:17:26;;;;;;;158.43;23.47;;;6.00;97.30;;;;;;4943209;29;20426;-87
2021/04/19 04:19:52;;;;;;;160.70;24.43;;;6.00;97.30;;;;;;4942836;29;20434;-87
2021/04/19 04:22:18;;;;;;;182.60;23.27;;;6.00;97.30;;;;;;4942912;29;20183;-88
2021/04/19 04:24:45;;;;;;;139.70;22.50;;;6.00;97.30;;;;;;4942543;29;20318;-88
2021/04/19 04:27:11;;;;;;;150.30;21.80;;;6.00;97.30;;;;;;4959990;28;20407;-88
2021/04/19 04:29:37;;;;;;;130.03;23.10;;;6.00;97.30;;;;;;4943078;29;21152;-88
2021/04/19 04:32:04;;;;;;;154.47;22.87;;;6.00;97.30;;;;;;4941788;29;20454;-88
2021/04/19 04:34:30;;;;;;;115.47;21.60;;;6.10;97.30;;;;;;4941404;29;20447;-88
2021/04/19 04:36:56;;;;;;;94.37;20.73;;;6.10;97.30;;;;;;4940408;28;20944;-88
2021/04/19 04:39:22;;;;;;;90.17;20.87;;;6.00;97.30;;;;;;4939549;29;20634;-88
2021/04/19 04:41:48;;;;;;;71.73;19.63;;;6.00;97.30;;;;;;4940463;29;20172;-88
2021/04/19 04:44:24;;;;;;;56.93;18.60;;;5.90;97.30;;;;;;4940579;29;20461;-88
2021/04/19 04:47:08;;;;;;;65.83;20.97;;;5.90;97.30;;;;;;4940336;29;20697;-89
2021/04/19 04:49:54;;;;;;;62.27;19.80;;;5.90;97.30;;;;;;4941699;29;20459;-88
2021/04/19 04:52:22;;;;;;;60.97;19.10;;;6.00;97.30;;;;;;4960503;29;20418;-88
2021/04/19 04:54:49;;;;;;;184.97;23.30;;;6.00;97.30;;;;;;4948404;29;20491;-88
2021/04/19 04:57:22;;;;;;;215.47;24.93;;;6.00;97.30;;;;;;4941047;29;20431;-88
2021/04/19 04:59:52;;;;;;;254.97;27.50;;;6.00;97.30;;;;;;4940814;29;20439;-88
2021/04/19 05:02:21;;;;;;;212.73;24.83;;;6.00;97.30;;;;;;4938356;29;20424;-90
2021/04/19 05:04:48;;;;;;;145.07;22.93;;;6.10;97.30;;;;;;4940651;29;20513;-91
2021/04/19 05:07:14;;;;;;;245.70;24.40;;;6.10;97.30;;;;;;4940279;29;20412;-89
2021/04/19 05:09:40;;;;;;;178.40;24.30;;;6.00;97.30;;;;;;4940749;29;20463;-90
2021/04/19 05:12:06;;;;;;;242.17;25.03;;;6.00;97.30;;;;;;4939960;29;20424;-89
2021/04/19 05:14:34;;;;;;;185.43;26.23;;;6.00;97.30;;;;;;4938671;29;20206;-88
2021/04/19 05:16:59;;;;;;;206.27;24.20;;;6.10;97.30;;;;;;4930595;29;20833;-88
2021/04/19 05:19:25;;;;;;;102.97;20.40;;;6.00;97.30;;;;;;4921800;29;20424;-88
2021/04/19 05:21:50;;;;;;;213.17;23.80;;;6.10;97.30;;;;;;4921287;29;20187;-87
2021/04/19 05:24:16;;;;;;;185.73;24.10;;;6.10;97.30;;;;;;4921627;29;20196;-89
2021/04/19 05:26:42;;;;;;;225.47;23.97;;;6.20;97.30;;;;;;4922167;29;20176;-88
2021/04/19 05:29:07;;;;;;;143.13;21.33;;;6.20;97.30;;;;;;4921809;29;20659;-88
2021/04/19 05:31:33;;;;;;;156.13;21.57;;;6.30;97.30;;;;;;4922077;29;20219;-88
2021/04/19 05:33:59;;;;;;;98.40;20.07;;;6.30;97.30;;;;;;4921875;29;20679;-88
2021/04/19 05:36:28;;;;;;;75.67;18.30;;;6.30;97.30;;;;;;4922384;29;20191;-88
2021/04/19 05:38:55;;;;;;;92.13;18.67;;;6.30;97.30;;;;;;4922349;29;20231;-87
2021/04/19 05:41:22;;;;;;;117.03;21.47;;;6.40;97.30;;;;;;4922629;29;20408;-88
2021/04/19 05:43:48;;;;;;;60.93;19.50;;;6.40;97.30;;;;;;4922176;29;20450;-88
2021/04/19 05:46:16;;;;;;;116.10;22.00;;;6.50;97.30;;;;;;4922366;29;20422;-88
2021/04/19 05:48:43;;;;;;;82.83;20.40;;;6.50;97.30;;;;;;4922031;29;20795;-87
2021/04/19 05:51:19;;;;;;;54.23;18.93;;;6.50;97.30;;;;;;4921955;29;20848;-88
2021/04/19 05:59:05;;;;;;;122.00;21.47;;;6.60;97.30;;;;;;4989824;28;20491;-75
2021/04/19 06:01:35;;;;;;;96.00;22.00;;;6.60;97.30;;;;;;4992318;28;20429;-73
2021/04/19 06:04:40;;;;;;;65.67;20.10;;;6.70;97.30;;;;;;4974824;28;20914;-74
2021/04/19 06:07:20;;;;;;;118.10;23.30;;;6.70;97.30;;;;;;4993241;28;20405;-75
2021/04/19 06:09:54;;;;;;;62.73;20.37;;;6.70;97.30;;;;;;4974347;28;20943;-75
2021/04/19 06:12:24;;;;;;;71.93;19.70;;;6.70;97.30;;;;;;4992389;28;20432;-74
2021/04/19 06:14:52;;;;;;;102.13;19.67;;;6.80;97.30;;;;;;4975234;28;20421;-75
2021/04/19 06:17:21;;;;;;;77.53;18.93;;;6.80;97.30;;;;;;4974915;28;20635;-75
2021/04/19 06:19:47;;;;;;;90.30;20.40;;;6.80;97.30;;;;;;4974404;28;20421;-75
2021/04/19 06:22:15;;;;;;;69.13;18.60;;;6.80;97.30;;;;;;4974857;28;20436;-75
2021/04/19 06:24:48;;;;;;;73.00;20.07;;;6.90;97.30;;;;;;4974507;28;20417;-74
2021/04/19 06:27:18;;;;;;;98.73;20.60;;;6.90;97.30;;;;;;4974690;28;20447;-75
2021/04/19 06:29:44;;;;;;;125.87;21.33;;;6.90;97.30;;;;;;4974848;28;20460;-75
2021/04/19 06:32:11;;;;;;;59.17;19.60;;;6.90;97.30;;;;;;4991561;28;20866;-75
2021/04/19 06:34:37;;;;;;;85.17;22.00;;;6.90;97.30;;;;;;4991949;28;20174;-76
2021/04/19 06:37:05;;;;;;;90.63;22.37;;;7.00;97.30;;;;;;4975399;28;20733;-75
2021/04/19 06:39:31;;;;;;;64.37;21.30;;;7.10;97.30;;;;;;4974060;28;20576;-75
2021/04/19 06:41:57;;;;;;;58.43;20.37;;;7.10;97.30;;;;;;4992162;28;20440;-75
2021/04/19 06:44:23;;;;;;;51.47;20.33;;;7.10;97.30;;;;;;4975003;28;20224;-72
2021/04/19 06:46:50;;;;;;;58.67;20.40;;;7.20;97.30;;;;;;4973602;28;20429;-75
2021/04/19 06:49:16;;;;;;;49.13;21.57;;;7.30;97.30;;;;;;4992262;28;20912;-73
2021/04/19 06:51:43;;;;;;;59.23;20.53;;;7.30;97.30;;;;;;4978388;28;20444;-75
2021/04/19 06:54:10;;;;;;;39.90;18.37;;;7.40;97.30;;;;;;4988862;28;20181;-74
2021/04/19 06:56:41;;;;;;;41.40;18.67;;;7.40;97.30;;;;;;4994056;28;20405;-75
2021/04/19 06:59:21;;;;;;;46.60;21.17;;;7.40;97.30;;;;;;4975500;28;20433;-74
2021/04/19 07:01:52;;;;;;;40.03;18.50;;;7.40;97.30;;;;;;4991562;28;20531;-74
2021/04/19 07:04:23;;;;;;;35.63;18.03;;;7.40;97.30;;;;;;4992928;28;21219;-75
2021/04/19 07:06:49;;;;;;;42.87;19.70;;;7.50;97.30;;;;;;4992817;28;20421;-75
2021/04/19 07:09:26;;;;;;;54.17;20.60;;;7.50;97.30;;;;;;4956431;28;20426;-74
2021/04/19 07:12:02;;;;;;;46.53;21.43;;;7.50;97.30;;;;;;4955464;28;20445;-76
2021/04/19 07:14:30;;;;;;;44.40;20.63;;;7.50;97.30;;;;;;4956217;28;20437;-74
2021/04/19 07:16:56;;;;;;;36.83;19.00;;;7.50;97.30;;;;;;4982212;28;20822;-75
2021/04/19 07:19:22;;;;;;;37.97;18.60;;;7.60;97.30;;;;;;4969236;28;20413;-75
2021/04/19 07:21:49;;;;;;;37.00;19.30;;;7.60;97.30;;;;;;4992452;28;20429;-74
2021/04/19 07:24:14;;;;;;;34.07;18.60;;;7.60;97.30;;;;;;4971943;28;20409;-72
2021/04/19 07:26:42;;;;;;;43.07;20.50;;;7.60;97.30;;;;;;4954736;28;20425;-73
2021/04/19 07:29:08;;;;;;;36.93;19.40;;;7.70;97.30;;;;;;4974708;28;20408;-74
2021/04/19 07:31:51;;;;;;;43.83;20.57;;;7.80;97.30;;;;;;5011996;28;20456;-79
2021/04/19 07:34:19;;;;;;;33.20;17.90;;;7.90;97.30;;;;;;4997502;28;20215;-79
2021/04/19 07:36:57;;;;;;;35.00;17.97;;;8.00;97.30;;;;;;4995397;28;20467;-75
2021/04/19 07:39:23;;;;;;;39.53;18.20;;;8.10;97.30;;;;;;4982161;28;20504;-76
2021/04/19 07:41:57;;;;;;;33.73;17.27;;;8.10;97.30;;;;;;4974939;28;20500;-75
2021/04/19 07:44:41;;;;;;;35.90;17.50;;;8.20;97.30;;;;;;4975290;28;20409;-73
2021/04/19 07:47:27;;;;;;;39.50;19.97;;;8.30;97.30;;;;;;4974507;28;20421;-76
2021/04/19 07:50:14;;;;;;;40.40;18.73;;;8.40;97.30;;;;;;4989594;28;20460;-77
2021/04/19 07:53:02;;;;;;;36.93;17.33;;;8.40;97.30;;;;;;5013217;28;20403;-74
2021/04/19 07:55:38;;;;;;;37.97;18.40;;;8.40;97.30;;;;;;4997575;28;20436;-80
2021/04/19 07:58:06;;;;;;;41.07;18.60;;;8.40;97.30;;;;;;4967041;28;20492;-79
2021/04/19 08:00:37;;;;;;;51.23;18.67;;;8.60;97.30;;;;;;4974927;28;20429;-72
2021/04/19 08:03:10;;;;;;;35.00;19.20;;;8.60;97.30;;;;;;4973629;28;20796;-74
2021/04/19 08:05:55;;;;;;;41.13;20.43;;;8.60;97.30;;;;;;4990980;28;20401;-74
2021/04/19 08:08:37;;;;;;;40.20;20.20;;;8.70;97.30;;;;;;4974636;28;20412;-78
2021/04/19 08:11:11;;;;;;;41.80;18.60;;;8.70;97.30;;;;;;4973921;28;20503;-77
2021/04/19 08:13:37;;;;;;;45.00;19.97;;;8.70;97.30;;;;;;4974288;28;20434;-72
2021/04/19 08:16:26;;;;;;;42.37;18.97;;;8.60;97.30;;;;;;4977077;28;20421;-74
2021/04/19 08:19:00;;;;;;;44.93;19.80;;;8.60;97.30;;;;;;4978177;28;20501;-73
2021/04/19 08:21:30;;;;;;;43.23;19.93;;;8.70;97.30;;;;;;4997876;28;20539;-75
2021/04/19 08:24:13;;;;;;;38.53;20.43;;;8.70;97.30;;;;;;4997685;28;20408;-75
2021/04/19 08:26:56;;;;;;;44.60;20.33;;;8.80;97.30;;;;;;4997201;28;20451;-75
2021/04/19 08:29:45;;;;;;;42.23;18.67;;;8.90;97.30;;;;;;4997836;28;20430;-80
2021/04/19 08:32:22;;;;;;;41.07;18.70;;;9.00;97.30;;;;;;4998646;28;20771;-79
2021/04/19 08:34:49;;;;;;;36.63;18.30;;;9.10;97.30;;;;;;5015097;28;20458;-72
2021/04/19 08:37:21;;;;;;;37.67;19.20;;;9.10;97.30;;;;;;5014743;28;20504;-71
2021/04/19 08:39:47;;;;;;;41.47;20.73;;;9.10;97.30;;;;;;4982920;28;20424;-73
2021/04/19 08:42:14;;;;;;;46.13;21.23;;;9.10;97.30;;;;;;4995248;28;20943;-75
2021/04/19 08:44:41;;;;;;;40.67;18.90;;;9.10;97.30;;;;;;4997425;28;20428;-75
2021/04/19 08:47:07;;;;;;;35.67;18.27;;;9.20;97.30;;;;;;5014703;28;20486;-74
2021/04/19 08:49:34;;;;;;;35.83;17.13;;;9.40;97.30;;;;;;4997090;28;20960;-75
2021/04/19 08:52:00;;;;;;;37.10;18.53;;;9.40;97.30;;;;;;4997161;28;20442;-72
2021/04/19 08:54:27;;;;;;;37.43;19.10;;;9.50;97.30;;;;;;5015249;28;20409;-79
2021/04/19 08:56:53;;;;;;;33.97;17.73;;;9.60;97.30;;;;;;4997332;28;20470;-75
2021/04/19 08:59:22;;;;;;;34.90;17.43;;;9.70;97.30;;;;;;4989276;28;20511;-73
2021/04/19 09:01:50;;;;;;;33.63;18.17;;;9.80;97.30;;;;;;4976186;28;20433;-74
2021/04/19 09:04:24;;;;;;;31.77;17.17;;;9.90;97.30;;;;;;4976680;28;20447;-77
2021/04/19 09:06:52;;;;;;;36.10;17.43;;;10.00;97.30;;;;;;4971566;28;20906;-74
2021/04/19 09:09:34;;;;;;;34.60;18.30;;;10.00;97.30;;;;;;4973403;28;20427;-73
2021/04/19 09:12:19;;;;;;;30.83;16.60;;;10.00;97.30;;;;;;5012749;28;20443;-72
2021/04/19 09:14:45;;;;;;;32.13;16.97;;;10.10;97.30;;;;;;4995904;28;20416;-73
2021/04/19 09:17:26;;;;;;;32.17;17.50;;;10.20;97.30;;;;;;5012563;28;20431;-73
2021/04/19 09:19:59;;;;;;;33.93;18.50;;;10.20;97.30;;;;;;5000596;28;20413;-78
2021/04/19 09:22:25;;;;;;;40.90;20.70;;;10.20;97.30;;;;;;4982321;28;20805;-76
2021/04/19 09:25:13;;;;;;;38.10;20.77;;;10.10;97.30;;;;;;4977153;28;20429;-73
2021/04/19 09:27:45;;;;;;;38.20;19.60;;;10.20;97.30;;;;;;4977485;28;20500;-77
2021/04/19 09:30:19;;;;;;;41.40;22.17;;;10.30;97.30;;;;;;4978514;28;20461;-76
2021/04/19 09:32:45;;;;;;;33.47;19.27;;;10.30;97.30;;;;;;4976826;28;20413;-77
2021/04/19 09:35:48;;;;;;;42.00;20.93;;;10.40;97.30;;;;;;4977223;28;20413;-74
2021/04/19 09:38:48;;;;;;;37.47;19.80;;;10.60;97.30;;;;;;4978145;28;20456;-74
2021/04/19 09:41:15;;;;;;;36.50;20.47;;;10.80;97.30;;;;;;4989557;28;20967;-71
2021/04/19 09:43:54;;;;;;;35.37;20.13;;;10.80;97.30;;;;;;4994237;28;20500;-77
2021/04/19 09:46:20;;;;;;;36.50;20.40;;;10.80;97.30;;;;;;5004254;28;20423;-73
2021/04/19 09:48:59;;;;;;;36.50;20.37;;;10.80;97.30;;;;;;4995493;28;20424;-72
2021/04/19 09:51:37;;;;;;;43.47;22.57;;;10.80;97.30;;;;;;5013728;28;20265;-72
2021/04/19 09:54:10;;;;;;;48.70;23.80;;;10.90;97.30;;;;;;5014120;28;20487;-73
2021/04/19 09:56:44;;;;;;;49.70;25.07;;;11.10;97.30;;;;;;4998625;28;20429;-73
2021/04/19 09:59:18;;;;;;;51.37;27.30;;;11.20;97.30;;;;;;4979241;28;20428;-74
2021/04/19 10:01:49;;;;;;;51.10;25.20;;;11.30;97.30;;;;;;4994390;28;20452;-74
2021/04/19 10:04:15;;;;;;;48.80;23.80;;;11.40;97.30;;;;;;4975830;28;20796;-72
2021/04/19 10:06:49;;;;;;;49.43;25.37;;;11.50;97.30;;;;;;4976485;28;20461;-72
2021/04/19 10:09:16;;;;;;;56.13;26.80;;;11.80;97.30;;;;;;4975950;28;20843;-72
2021/04/19 10:11:52;;;;;;;52.87;27.70;;;12.00;97.30;;;;;;4993202;28;20479;-72
2021/04/19 10:14:18;;;;;;;52.97;26.67;;;12.10;97.30;;;;;;4992804;28;20443;-71
2021/04/19 10:16:47;;;;;;;51.73;26.40;;;12.10;97.30;;;;;;4976239;28;20839;-73
2021/04/19 10:19:22;;;;;;;48.13;26.07;;;12.20;97.30;;;;;;4981457;28;20507;-72
2021/04/19 10:21:57;;;;;;;46.60;25.57;;;12.30;97.30;;;;;;5012278;28;20472;-72
2021/04/19 10:24:23;;;;;;;59.97;28.57;;;12.30;97.30;;;;;;5012829;28;20960;-70
2021/04/19 10:26:49;;;;;;;51.60;26.60;;;12.30;97.30;;;;;;4995046;28;20420;-74
2021/04/19 10:29:19;;;;;;;52.97;26.40;;;12.40;97.30;;;;;;4984242;28;20189;-71
2021/04/19 10:31:57;;;;;;;54.90;28.40;;;12.50;97.30;;;;;;4977211;28;20198;-74
2021/04/19 10:34:25;;;;;;;49.57;27.43;;;12.80;97.30;;;;;;4977180;28;20429;-72
2021/04/19 10:36:55;;;;;;;51.00;26.17;;;13.00;97.30;;;;;;4977400;28;20908;-73
2021/04/19 10:39:24;;;;;;;45.70;23.97;;;13.20;97.30;;;;;;4973675;28;20446;-73
2021/04/19 10:41:58;;;;;;;49.57;25.07;;;13.50;97.30;;;;;;4975826;28;20485;-72
2021/04/19 10:44:56;;;;;;;48.43;26.03;;;13.70;97.30;;;;;;4958174;28;20417;-83
2021/04/19 10:47:29;;;;;;;58.07;27.83;;;13.60;97.30;;;;;;4916912;28;20814;-77
2021/04/19 10:49:56;;;;;;;46.20;24.70;;;13.80;97.30;;;;;;4996462;28;20456;-74
2021/04/19 10:52:22;;;;;;;45.20;25.60;;;14.00;97.30;;;;;;4977941;28;20492;-76
2021/04/19 10:54:48;;;;;;;47.77;23.93;;;14.10;97.30;;;;;;4975094;28;20410;-77
2021/04/19 10:57:25;;;;;;;40.63;22.77;;;14.40;97.30;;;;;;4960544;28;20461;-79
2021/04/19 10:59:56;;;;;;;40.27;21.93;;;14.30;94.70;;;;;;4997351;28;20419;-84
2021/04/19 11:02:24;;;;;;;38.73;21.77;;;14.10;94.10;;;;;;5002759;28;20805;-80
2021/04/19 11:04:51;;;;;;;45.73;24.50;;;14.10;93.90;;;;;;5001462;28;20423;-74
2021/04/19 11:07:37;;;;;;;45.23;24.80;;;14.20;96.00;;;;;;4999450;28;20412;-76
2021/04/19 11:10:23;;;;;;;45.77;25.10;;;14.30;92.90;;;;;;5005324;28;20459;-77
2021/04/19 11:12:53;;;;;;;46.10;24.20;;;14.60;94.70;;;;;;4980622;28;20428;-75
2021/04/19 11:15:35;;;;;;;42.07;23.70;;;14.80;92.20;;;;;;4981204;28;20770;-75
2021/04/19 11:18:21;;;;;;;49.03;24.60;;;15.00;93.10;;;;;;4980298;28;20416;-75
2021/04/19 11:20:48;;;;;;;37.93;21.90;;;15.40;90.30;;;;;;4997600;28;20495;-75
2021/04/19 11:23:27;;;;;;;34.27;20.93;;;15.30;89.70;;;;;;5000281;28;20726;-75
2021/04/19 11:25:55;;;;;;;40.67;23.70;;;15.40;90.20;;;;;;5001308;28;20424;-75
2021/04/19 11:28:33;;;;;;;42.67;22.77;;;15.50;90.50;;;;;;5001330;28;20423;-75
2021/04/19 11:31:15;;;;;;;40.60;22.50;;;15.70;89.90;;;;;;5001438;28;20487;-75
2021/04/19 11:33:41;;;;;;;38.60;23.20;;;16.00;91.60;;;;;;5000912;28;20416;-75
2021/04/19 11:36:08;;;;;;;41.27;22.90;;;16.20;90.30;;;;;;5001964;28;20416;-76
2021/04/19 11:38:43;;;;;;;38.80;22.03;;;16.30;88.90;;;;;;5001558;28;20496;-75
2021/04/19 11:41:13;;;;;;;40.70;21.83;;;16.00;88.30;;;;;;5001130;28;20982;-75
2021/04/19 11:43:48;;;;;;;38.20;20.83;;;15.70;88.70;;;;;;5002517;28;20416;-75
2021/04/19 11:46:16;;;;;;;41.93;21.60;;;15.40;88.90;;;;;;5001210;28;20488;-76
2021/04/19 11:48:44;;;;;;;40.10;22.30;;;15.10;89.20;;;;;;4984612;28;20413;-75
2021/04/19 11:51:14;;;;;;;39.00;23.07;;;15.00;90.60;;;;;;4985907;28;20558;-75
2021/04/19 11:53:41;;;;;;;43.53;21.60;;;15.20;91.30;;;;;;4985499;28;20421;-76
2021/04/19 11:56:08;;;;;;;37.13;21.13;;;15.20;89.60;;;;;;4978411;23;20568;-78
2021/04/19 11:58:36;;;;;;;41.13;21.33;;;15.40;89.70;;;;;;4948713;29;20900;-78
2021/04/19 12:01:04;;;;;;;37.03;20.90;;;15.40;88.30;;;;;;4955428;28;20471;-78
2021/04/19 12:03:29;;;;;;;35.97;20.83;;;15.30;90.10;;;;;;4958222;28;20509;-78
2021/04/19 12:05:55;;;;;;;43.10;23.57;;;15.30;90.10;;;;;;4958828;28;20460;-78
2021/04/19 12:08:22;;;;;;;38.17;21.50;;;15.20;90.30;;;;;;4959188;28;20602;-78
2021/04/19 12:10:47;;;;;;;41.40;22.30;;;14.90;90.90;;;;;;4944205;29;20309;-78
2021/04/19 12:13:14;;;;;;;39.50;21.70;;;14.80;91.40;;;;;;4946396;29;20450;-79
2021/04/19 12:15:44;;;;;;;37.73;21.40;;;14.80;92.20;;;;;;4947576;29;20179;-79
2021/04/19 12:18:11;;;;;;;38.73;21.63;;;14.80;92.20;;;;;;4945774;29;20415;-78
2021/04/19 12:20:37;;;;;;;35.80;20.73;;;14.80;92.10;;;;;;4991026;28;20446;-79
2021/04/19 12:23:03;;;;;;;38.57;20.37;;;14.80;92.20;;;;;;4948597;28;20452;-78
2021/04/19 12:25:31;;;;;;;40.20;22.20;;;14.80;92.50;;;;;;4963612;28;20425;-78
2021/04/19 12:27:58;;;;;;;30.10;17.60;;;14.80;91.20;;;;;;4964750;28;20422;-79
2021/04/19 12:30:25;;;;;;;34.60;19.57;;;14.70;91.40;;;;;;4965929;28;20458;-79
2021/04/19 12:32:50;;;;;;;31.13;17.57;;;14.60;89.90;;;;;;4964653;28;20446;-78
2021/04/19 12:35:17;;;;;;;34.20;19.53;;;14.50;90.40;;;;;;4981388;28;20477;-79
2021/04/19 12:37:42;;;;;;;34.80;18.77;;;14.60;90.90;;;;;;4980076;28;20456;-79
2021/04/19 12:40:08;;;;;;;38.10;19.97;;;14.70;90.80;;;;;;4964392;28;20586;-78
2021/04/19 12:42:34;;;;;;;39.83;19.40;;;14.70;91.10;;;;;;4981760;28;20253;-79
2021/04/19 12:45:00;;;;;;;32.10;17.97;;;14.60;91.20;;;;;;4963645;28;20426;-78
2021/04/19 12:47:25;;;;;;;35.53;18.87;;;14.60;92.10;;;;;;4961940;28;20261;-80
2021/04/19 12:49:51;;;;;;;35.30;18.83;;;14.70;93.00;;;;;;4958630;28;20665;-79
2021/04/19 12:52:17;;;;;;;31.70;17.07;;;14.80;91.30;;;;;;4961216;28;20673;-80
2021/04/19 12:54:42;;;;;;;28.03;15.70;;;14.80;90.60;;;;;;4977467;28;20617;-80
2021/04/19 12:57:08;;;;;;;36.37;16.83;;;14.90;88.90;;;;;;4959908;28;20211;-81